createdAt,value
2022-12-09T00:00:07.573Z,99791.38
2022-12-09T00:02:36.748Z,99786.09
2022-12-09T00:05:03.589Z,99786.09
2022-12-09T00:07:30.415Z,99781.28
2022-12-09T00:09:57.034Z,99783.69
2022-12-09T00:12:26.054Z,99779.97
2022-12-09T00:14:52.761Z,99776.63
2022-12-09T00:17:19.740Z,99765.66
2022-12-09T00:19:48.433Z,99761.44
2022-12-09T00:22:17.621Z,99765.66
2022-12-09T00:24:46.758Z,99784.16
2022-12-09T00:27:13.472Z,99795.09
2022-12-09T00:29:40.565Z,99803.97
2022-12-09T00:32:07.812Z,99816.75
2022-12-09T00:34:37.242Z,99822.88
2022-12-09T00:37:06.611Z,99823.28
2022-12-09T00:39:33.225Z,99817.63
2022-12-09T00:41:59.968Z,99814.72
2022-12-09T00:44:28.049Z,99816.72
2022-12-09T00:46:57.203Z,99816.81
2022-12-09T00:49:24.321Z,99802.16
2022-12-09T00:51:50.924Z,99809.81
2022-12-09T00:54:19.931Z,99799.53
2022-12-09T00:56:48.900Z,99797.63
2022-12-09T00:59:18.138Z,99798.66
2022-12-09T01:01:45.263Z,99787.69
2022-12-09T01:04:12.120Z,99797.53
2022-12-09T01:06:38.981Z,99807.81
2022-12-09T01:09:08.021Z,99809.44
2022-12-09T01:11:34.972Z,99803.72
2022-12-09T01:14:04.261Z,99803.59
2022-12-09T01:16:33.757Z,99809.69
2022-12-09T01:19:01.605Z,99801.97
2022-12-09T01:21:29.996Z,99807.16
2022-12-09T01:23:56.675Z,99803.81
2022-12-09T01:26:23.271Z,99804.72
2022-12-09T01:28:53.434Z,99804.00
2022-12-09T01:31:21.648Z,99796.44
2022-12-09T01:33:48.607Z,99804.16
2022-12-09T01:36:16.464Z,99805.53
2022-12-09T01:38:43.170Z,99800.94
2022-12-09T01:41:10.076Z,99795.28
2022-12-09T01:43:39.656Z,99786.41
2022-12-09T01:46:06.411Z,99781.44
2022-12-09T01:48:40.941Z,99773.06
2022-12-09T01:51:16.976Z,99782.59
2022-12-09T01:53:45.851Z,99780.09
2022-12-09T01:56:23.019Z,99774.13
2022-12-09T01:58:49.702Z,99780.41
2022-12-09T02:01:16.689Z,99777.91
2022-12-09T02:03:46.078Z,99778.19
2022-12-09T02:06:13.472Z,99783.41
2022-12-09T02:08:44.325Z,99788.47
2022-12-09T02:11:16.623Z,99785.94
2022-12-09T02:13:56.913Z,99783.56
2022-12-09T02:16:25.559Z,99778.34
2022-12-09T02:18:55.323Z,99783.56
2022-12-09T02:21:25.039Z,99775.22
2022-12-09T02:23:54.922Z,99778.91
2022-12-09T02:26:25.979Z,99776.28
2022-12-09T02:29:01.779Z,99760.84
2022-12-09T02:31:50.104Z,99759.25
2022-12-09T02:34:21.036Z,99762.72
2022-12-09T02:37:05.121Z,99759.31
2022-12-09T02:39:38.290Z,99750.69
2022-12-09T02:42:06.737Z,99753.19
2022-12-09T02:44:37.922Z,99765.22
2022-12-09T02:47:05.946Z,99765.28
2022-12-09T02:49:33.207Z,99763.63
2022-12-09T02:52:00.116Z,99766.22
2022-12-09T02:54:26.874Z,99759.31
2022-12-09T02:56:55.180Z,99753.31
2022-12-09T02:59:22.652Z,99747.28
2022-12-09T03:01:52.202Z,99748.25
2022-12-09T03:04:22.776Z,99750.75
2022-12-09T03:06:52.287Z,99757.69
2022-12-09T03:09:37.798Z,99750.81
2022-12-09T03:12:06.503Z,99757.69
2022-12-09T03:14:38.390Z,99743.97
2022-12-09T03:17:14.307Z,99743.16
2022-12-09T03:19:43.009Z,99743.09
2022-12-09T03:22:11.711Z,99748.25
2022-12-09T03:24:42.787Z,99763.75
2022-12-09T03:27:12.750Z,99765.53
2022-12-09T03:29:40.030Z,99767.22
2022-12-09T03:32:09.445Z,99772.19
2022-12-09T03:34:37.533Z,99768.66
2022-12-09T03:37:09.058Z,99754.03
2022-12-09T03:39:38.239Z,99750.63
2022-12-09T03:42:06.167Z,99762.72
2022-12-09T03:44:47.839Z,99760.06
2022-12-09T03:47:14.751Z,99749.69
2022-12-09T03:49:46.661Z,99755.69
2022-12-09T03:52:27.051Z,99756.56
2022-12-09T03:55:01.001Z,99760.84
2022-12-09T03:57:27.847Z,99769.63
2022-12-09T03:59:56.027Z,99766.41
2022-12-09T04:02:23.399Z,99757.94
2022-12-09T04:04:50.403Z,99756.91
2022-12-09T04:07:19.485Z,99757.69
2022-12-09T04:09:48.483Z,99750.63
2022-12-09T04:12:15.233Z,99754.91
2022-12-09T04:14:41.933Z,99760.06
2022-12-09T04:17:11.185Z,99743.09
2022-12-09T04:19:38.197Z,99739.91
2022-12-09T04:22:05.068Z,99727.00
2022-12-09T04:24:34.298Z,99731.34
2022-12-09T04:27:04.421Z,99731.47
2022-12-09T04:29:30.967Z,99732.25
2022-12-09T04:31:57.885Z,99733.03
2022-12-09T04:34:27.081Z,99743.34
2022-12-09T04:36:56.223Z,99739.19
2022-12-09T04:39:22.815Z,99735.91
2022-12-09T04:41:49.371Z,99731.72
2022-12-09T04:44:15.874Z,99729.13
2022-12-09T04:46:44.426Z,99729.00
2022-12-09T04:49:11.338Z,99720.41
2022-12-09T04:51:40.103Z,99726.34
2022-12-09T04:54:09.589Z,99735.09
2022-12-09T04:56:36.498Z,99730.88
2022-12-09T04:59:03.206Z,99731.00
2022-12-09T05:01:31.388Z,99731.94
2022-12-09T05:03:58.784Z,99732.88
2022-12-09T05:06:29.360Z,99738.16
2022-12-09T05:09:01.186Z,99734.88
2022-12-09T05:11:33.153Z,99728.97
2022-12-09T05:14:00.441Z,99727.25
2022-12-09T05:16:29.622Z,99729.00
2022-12-09T05:18:56.404Z,99729.72
2022-12-09T05:21:23.769Z,99742.59
2022-12-09T05:23:50.568Z,99734.88
2022-12-09T05:26:18.093Z,99740.09
2022-12-09T05:28:47.557Z,99738.31
2022-12-09T05:31:18.189Z,99737.66
2022-12-09T05:33:48.084Z,99734.41
2022-12-09T05:36:16.439Z,99729.31
2022-12-09T05:38:43.907Z,99734.63
2022-12-09T05:41:10.931Z,99732.13
2022-12-09T05:43:40.312Z,99727.69
2022-12-09T05:46:10.090Z,99724.09
2022-12-09T05:51:54.476Z,99716.25
2022-12-09T05:54:21.587Z,99713.84
2022-12-09T05:57:07.974Z,99708.69
2022-12-09T05:59:39.755Z,99706.97
2022-12-09T06:05:51.393Z,99708.16
2022-12-09T06:08:48.630Z,99705.63
2022-12-09T06:11:25.805Z,99706.75
2022-12-09T06:14:27.501Z,99699.19
2022-12-09T06:28:21.518Z,99705.69
2022-12-09T06:35:15.704Z,99686.03
2022-12-09T06:37:49.282Z,99695.56
2022-12-09T06:40:16.490Z,99696.16
2022-12-09T06:42:54.302Z,99692.63
2022-12-09T06:45:49.120Z,99690.75
2022-12-09T06:48:38.117Z,99694.50
2022-12-09T06:51:07.456Z,99695.56
2022-12-09T06:53:36.755Z,99702.13
2022-12-09T06:56:11.060Z,99693.16
2022-12-09T06:58:38.670Z,99691.06
2022-12-09T07:01:13.808Z,99695.59
2022-12-09T07:03:41.756Z,99689.88
2022-12-09T07:06:12.609Z,99687.28
2022-12-09T07:08:39.726Z,99689.97
2022-12-09T07:11:08.881Z,99693.19
2022-12-09T07:13:35.611Z,99690.38
2022-12-09T07:16:02.369Z,99680.31
2022-12-09T07:18:30.026Z,99683.88
2022-12-09T07:20:56.883Z,99681.50
2022-12-09T07:23:23.693Z,99684.09
2022-12-09T07:25:57.383Z,99668.88
2022-12-09T07:28:26.992Z,99679.50
2022-12-09T07:30:53.863Z,99672.75
2022-12-09T07:33:23.430Z,99677.91
2022-12-09T07:35:50.308Z,99678.59
2022-12-09T07:38:17.054Z,99679.34
2022-12-09T07:40:44.305Z,99676.59
2022-12-09T07:43:11.191Z,99680.63
2022-12-09T07:45:42.646Z,99676.72
2022-12-09T07:48:09.651Z,99683.63
2022-12-09T07:50:37.058Z,99682.00
2022-12-09T07:53:06.237Z,99681.25
2022-12-09T07:55:34.024Z,99680.38
2022-12-09T07:58:00.957Z,99681.38
2022-12-09T08:00:28.054Z,99674.34
2022-12-09T08:02:54.859Z,99678.47
2022-12-09T08:05:22.635Z,99676.84
2022-12-09T08:07:49.632Z,99675.22
2022-12-09T08:10:17.243Z,99667.53
2022-12-09T08:12:44.999Z,99666.56
2022-12-09T08:15:11.885Z,99668.28
2022-12-09T08:17:39.600Z,99664.72
2022-12-09T08:20:09.618Z,99656.13
2022-12-09T08:22:39.261Z,99658.00
2022-12-09T08:25:07.022Z,99655.50
2022-12-09T08:27:37.346Z,99652.09
2022-12-09T08:30:05.705Z,99654.88
2022-12-09T08:32:32.910Z,99648.81
2022-12-09T08:35:00.934Z,99648.28
2022-12-09T08:37:30.471Z,99639.09
2022-12-09T08:39:59.663Z,99632.41
2022-12-09T08:42:29.840Z,99631.88
2022-12-09T08:45:02.350Z,99631.97
2022-12-09T08:47:32.324Z,99636.63
2022-12-09T08:50:00.070Z,99627.31
2022-12-09T08:52:26.997Z,99635.81
2022-12-09T08:54:53.641Z,99619.94
2022-12-09T08:57:24.265Z,99618.63
2022-12-09T08:59:51.191Z,99622.75
2022-12-09T09:02:20.301Z,99619.78
2022-12-09T09:04:47.617Z,99613.94
2022-12-09T09:07:14.830Z,99617.75
2022-12-09T09:09:42.107Z,99607.06
2022-12-09T09:12:09.560Z,99604.00
2022-12-09T09:14:36.372Z,99594.00
2022-12-09T09:17:03.527Z,99588.31
2022-12-09T09:19:32.694Z,99588.25
2022-12-09T09:22:02.103Z,99588.97
2022-12-09T09:24:28.954Z,99589.03
2022-12-09T09:26:58.217Z,99586.44
2022-12-09T09:29:24.977Z,99588.00
2022-12-09T09:31:56.235Z,99594.91
2022-12-09T09:34:26.131Z,99584.88
2022-12-09T09:36:56.529Z,99585.13
2022-12-09T09:39:25.936Z,99584.19
2022-12-09T09:42:07.393Z,99570.28
2022-12-09T09:44:48.063Z,99565.22
2022-12-09T09:47:26.144Z,99564.59
2022-12-09T09:49:58.761Z,99560.63
2022-12-09T09:52:28.540Z,99563.31
2022-12-09T09:55:01.421Z,99563.38
2022-12-09T09:57:28.410Z,99564.81
2022-12-09T10:00:12.629Z,99557.34
2022-12-09T10:02:46.254Z,99551.50
2022-12-09T10:05:15.356Z,99550.69
2022-12-09T10:07:43.715Z,99543.81
2022-12-09T10:10:30.503Z,99537.97
2022-12-09T10:13:18.638Z,99526.84
2022-12-09T10:16:05.493Z,99524.38
2022-12-09T10:18:33.869Z,99511.56
2022-12-09T10:21:01.533Z,99503.19
2022-12-09T10:23:32.149Z,99508.44
2022-12-09T10:26:00.416Z,99492.19
2022-12-09T10:28:40.525Z,99480.16
2022-12-09T10:31:07.842Z,99487.91
2022-12-09T10:33:39.131Z,99474.13
2022-12-09T10:36:13.013Z,99449.22
2022-12-09T10:38:40.393Z,99456.03
2022-12-09T10:41:13.974Z,99450.13
2022-12-09T10:43:44.700Z,99431.19
2022-12-09T10:46:26.852Z,99434.56
2022-12-09T10:49:02.370Z,99427.72
2022-12-09T10:51:31.534Z,99419.22
2022-12-09T10:53:58.990Z,99408.03
2022-12-09T10:56:27.436Z,99401.19
2022-12-09T10:59:13.558Z,99397.06
2022-12-09T11:01:59.853Z,99384.22
2022-12-09T11:04:33.911Z,99395.44
2022-12-09T11:07:19.958Z,99395.41
2022-12-09T11:09:48.132Z,99390.19
2022-12-09T11:12:17.613Z,99384.31
2022-12-09T11:14:51.885Z,99366.38
2022-12-09T11:17:22.621Z,99357.91
2022-12-09T11:19:52.641Z,99363.16
2022-12-09T11:22:40.264Z,99364.03
2022-12-09T11:25:24.857Z,99362.22
2022-12-09T11:28:02.626Z,99350.78
2022-12-09T11:30:34.263Z,99354.97
2022-12-09T11:33:04.398Z,99366.00
2022-12-09T11:35:44.757Z,99373.63
2022-12-09T11:38:30.441Z,99366.25
2022-12-09T11:40:56.947Z,99338.78
2022-12-09T11:43:29.701Z,99361.84
2022-12-09T11:45:56.301Z,99341.84
2022-12-09T11:48:35.019Z,99348.16
2022-12-09T11:51:04.127Z,99336.97
2022-12-09T11:53:32.140Z,99324.16
2022-12-09T11:56:18.313Z,99329.59
2022-12-09T11:58:49.288Z,99330.66
2022-12-09T12:01:34.687Z,99326.94
2022-12-09T12:04:01.915Z,99332.94
2022-12-09T12:06:37.274Z,99333.06
2022-12-09T12:09:18.023Z,99314.81
2022-12-09T12:12:05.184Z,99297.59
2022-12-09T12:14:34.531Z,99311.56
2022-12-09T12:17:13.304Z,99313.56
2022-12-09T12:19:40.768Z,99318.91
2022-12-09T12:22:15.966Z,99311.28
2022-12-09T12:24:52.943Z,99311.47
2022-12-09T12:27:54.063Z,99309.66
2022-12-09T12:30:21.525Z,99299.03
2022-12-09T12:33:52.980Z,99299.22
2022-12-09T12:35:50.145Z,99286.13
2022-12-09T12:38:29.018Z,99290.56
2022-12-09T12:41:04.636Z,99279.34
2022-12-09T12:44:11.833Z,99289.50
2022-12-09T12:46:38.357Z,99274.16
2022-12-09T12:49:14.044Z,99269.88
2022-12-09T12:51:43.634Z,99274.09
2022-12-09T12:54:19.589Z,99278.56
2022-12-09T12:57:06.418Z,99271.03
2022-12-09T12:59:42.462Z,99271.19
2022-12-09T13:02:08.996Z,99269.59
2022-12-09T13:04:41.946Z,99262.69
2022-12-09T13:07:12.022Z,99260.03
2022-12-09T13:09:40.909Z,99268.44
2022-12-09T13:12:07.432Z,99260.63
2022-12-09T13:14:36.737Z,99264.16
2022-12-09T13:17:04.774Z,99253.03
2022-12-09T13:19:36.230Z,99247.03
2022-12-09T13:22:03.969Z,99247.03
2022-12-09T13:24:33.657Z,99258.28
2022-12-09T13:27:06.581Z,99252.44
2022-12-09T13:29:39.376Z,99250.72
2022-12-09T13:32:17.705Z,99249.81
2022-12-09T13:34:54.464Z,99248.91
2022-12-09T13:37:30.362Z,99256.66
2022-12-09T13:39:58.331Z,99244.63
2022-12-09T13:42:47.252Z,99241.09
2022-12-09T13:45:16.902Z,99239.19
2022-12-09T13:47:43.528Z,99237.44
2022-12-09T13:50:28.790Z,99231.44
2022-12-09T13:52:56.045Z,99230.38
2022-12-09T13:55:22.631Z,99225.06
2022-12-09T13:58:04.437Z,99229.44
2022-12-09T14:00:31.060Z,99228.53
2022-12-09T14:02:59.275Z,99232.81
2022-12-09T14:05:26.315Z,99228.59
2022-12-09T14:08:06.049Z,99226.19
2022-12-09T14:10:35.057Z,99224.63
2022-12-09T14:13:02.905Z,99223.88
2022-12-09T14:15:29.474Z,99223.03
2022-12-09T14:18:00.635Z,99218.78
2022-12-09T14:20:31.735Z,99210.97
2022-12-09T14:23:07.516Z,99205.78
2022-12-09T14:25:34.046Z,99196.09
2022-12-09T14:28:12.110Z,99196.16
2022-12-09T14:30:47.991Z,99202.22
2022-12-09T14:33:20.714Z,99195.38
2022-12-09T14:35:48.989Z,99192.88
2022-12-09T14:39:15.757Z,99184.22
2022-12-09T14:41:36.304Z,99190.13
2022-12-09T14:44:21.945Z,99164.41
2022-12-09T14:46:52.087Z,99161.66
2022-12-09T14:49:27.776Z,99163.38
2022-12-09T14:51:54.969Z,99160.78
2022-12-09T14:54:27.081Z,99162.53
2022-12-09T14:56:55.373Z,99155.78
2022-12-09T14:59:23.092Z,99143.75
2022-12-09T15:01:49.744Z,99136.78
2022-12-09T15:04:24.753Z,99128.19
2022-12-09T15:07:11.967Z,99123.94
2022-12-09T15:09:41.631Z,99123.09
2022-12-09T15:12:11.659Z,99127.28
2022-12-09T15:14:41.122Z,99132.50
2022-12-09T15:17:17.559Z,99134.34
2022-12-09T15:20:00.239Z,99129.34
2022-12-09T15:22:28.403Z,99128.59
2022-12-09T15:24:55.106Z,99123.50
2022-12-09T15:27:22.536Z,99120.06
2022-12-09T15:29:53.844Z,99113.78
2022-12-09T15:32:21.574Z,99113.78
2022-12-09T15:34:51.406Z,99101.69
2022-12-09T15:37:18.302Z,99091.34
2022-12-09T15:39:52.284Z,99099.09
2022-12-09T15:42:22.084Z,99101.59
2022-12-09T15:44:54.699Z,99098.13
2022-12-09T15:47:29.970Z,99091.34
2022-12-09T15:50:20.969Z,99089.63
2022-12-09T15:52:47.515Z,99076.78
2022-12-09T15:55:18.021Z,99067.25
2022-12-09T15:57:44.663Z,99060.44
2022-12-09T16:00:13.886Z,99063.97
2022-12-09T16:02:40.740Z,99056.22
2022-12-09T16:05:12.069Z,99065.09
2022-12-09T16:07:38.778Z,99058.69
2022-12-09T16:10:05.731Z,99058.88
2022-12-09T16:12:35.398Z,99052.16
2022-12-09T16:15:02.565Z,99051.50
2022-12-09T16:17:30.369Z,99038.69
2022-12-09T16:19:57.037Z,99047.13
2022-12-09T16:22:23.586Z,99037.75
2022-12-09T16:25:13.546Z,99034.47
2022-12-09T16:27:39.243Z,99032.81
2022-12-09T16:30:18.017Z,99026.88
2022-12-09T16:32:47.477Z,99029.41
2022-12-09T16:35:17.294Z,99026.88
2022-12-09T16:38:03.854Z,99024.28
2022-12-09T16:40:32.658Z,99011.38
2022-12-09T16:43:17.598Z,99008.75
2022-12-09T16:45:51.302Z,99006.13
2022-12-09T16:48:18.979Z,98994.88
2022-12-09T16:50:50.999Z,98983.31
2022-12-09T16:53:30.832Z,98988.53
2022-12-09T16:56:00.857Z,98980.81
2022-12-09T16:58:27.962Z,98971.41
2022-12-09T17:00:55.794Z,98970.63
2022-12-09T17:03:25.512Z,98964.59
2022-12-09T17:05:57.263Z,98969.31
2022-12-09T17:08:29.463Z,98965.88
2022-12-09T17:10:56.071Z,98955.63
2022-12-09T17:13:25.572Z,98955.63
2022-12-09T17:15:58.246Z,98947.03
2022-12-09T17:18:25.611Z,98948.66
2022-12-09T17:21:09.854Z,98942.53
2022-12-09T17:23:39.921Z,98938.94
2022-12-09T17:26:08.049Z,98928.56
2022-12-09T17:28:39.649Z,98931.22
2022-12-09T17:31:19.723Z,98923.50
2022-12-09T17:33:46.354Z,98923.25
2022-12-09T17:36:13.812Z,98922.22
2022-12-09T17:38:45.317Z,98910.91
2022-12-09T17:41:16.100Z,98916.00
2022-12-09T17:43:43.132Z,98913.22
2022-12-09T17:46:12.135Z,98911.97
2022-12-09T17:48:42.081Z,98912.84
2022-12-09T17:51:10.134Z,98918.06
2022-12-09T17:53:41.763Z,98914.97
2022-12-09T17:56:09.298Z,98914.63
2022-12-09T17:58:38.522Z,98913.16
2022-12-09T18:01:05.726Z,98912.31
2022-12-09T18:04:02.613Z,98897.88
2022-12-09T18:06:24.451Z,98894.66
2022-12-09T18:08:55.753Z,98882.69
2022-12-09T18:11:23.620Z,98892.94
2022-12-09T18:14:20.065Z,98882.63
2022-12-09T18:16:49.223Z,98894.66
2022-12-09T18:19:20.361Z,98869.84
2022-12-09T18:21:49.420Z,98870.78
2022-12-09T18:24:18.628Z,98864.03
2022-12-09T18:26:53.022Z,98867.72
2022-12-09T18:29:19.867Z,98882.06
2022-12-09T18:31:56.939Z,98873.59
2022-12-09T18:34:28.427Z,98867.63
2022-12-09T18:36:57.625Z,98856.44
2022-12-09T18:39:26.521Z,98848.81
2022-12-09T18:41:55.539Z,98840.22
2022-12-09T18:44:26.968Z,98846.16
2022-12-09T18:46:56.181Z,98856.44
2022-12-09T18:49:23.962Z,98857.50
2022-12-09T18:51:51.513Z,98850.53
2022-12-09T18:54:19.126Z,98846.00
2022-12-09T18:56:46.510Z,98839.13
2022-12-09T18:59:13.523Z,98835.22
2022-12-09T19:01:44.456Z,98842.28
2022-12-09T19:04:21.829Z,98848.28
2022-12-09T19:06:51.686Z,98837.59
2022-12-09T19:09:19.398Z,98827.31
2022-12-09T19:11:46.454Z,98834.34
2022-12-09T19:14:14.219Z,98826.50
2022-12-09T19:16:41.153Z,98823.91
2022-12-09T19:19:10.393Z,98837.75
2022-12-09T19:21:38.061Z,98833.34
2022-12-09T19:24:04.796Z,98828.78
2022-12-09T19:26:37.796Z,98822.16
2022-12-09T19:29:05.346Z,98819.72
2022-12-09T19:31:36.572Z,98824.25
2022-12-09T19:34:09.137Z,98819.22
2022-12-09T19:36:35.796Z,98813.28
2022-12-09T19:39:06.211Z,98825.38
2022-12-09T19:41:32.763Z,98814.13
2022-12-09T19:44:02.366Z,98812.25
2022-12-09T19:46:29.017Z,98797.56
2022-12-09T19:48:56.033Z,98795.09
2022-12-09T19:51:25.502Z,98781.84
2022-12-09T19:53:55.458Z,98793.94
2022-12-09T19:56:22.129Z,98789.03
2022-12-09T19:58:51.427Z,98782.00
2022-12-09T20:01:19.026Z,98764.88
2022-12-09T20:03:48.662Z,98762.34
2022-12-09T20:06:16.179Z,98771.19
2022-12-09T20:08:43.464Z,98772.78
2022-12-09T20:11:12.010Z,98764.75
2022-12-09T20:13:38.567Z,98770.72
2022-12-09T20:16:05.813Z,98760.56
2022-12-09T20:18:34.866Z,98765.81
2022-12-09T20:21:04.386Z,98751.53
2022-12-09T20:23:31.008Z,98764.53
2022-12-09T20:26:26.796Z,98761.06
2022-12-09T20:29:06.037Z,98746.66
2022-12-09T20:31:35.179Z,98752.44
2022-12-09T20:34:05.786Z,98735.41
2022-12-09T20:36:32.996Z,98722.69
2022-12-09T20:39:05.443Z,98722.88
2022-12-09T20:41:34.262Z,98715.13
2022-12-09T20:44:11.363Z,98715.13
2022-12-09T20:46:43.433Z,98704.75
2022-12-09T20:49:13.458Z,98709.81
2022-12-09T20:51:40.586Z,98707.41
2022-12-09T20:54:09.503Z,98709.03
2022-12-09T20:56:36.023Z,98704.81
2022-12-09T20:59:10.859Z,98701.38
2022-12-09T21:01:37.789Z,98694.44
2022-12-09T21:04:07.508Z,98697.88
2022-12-09T21:06:40.438Z,98704.09
2022-12-09T21:09:08.863Z,98709.19
2022-12-09T21:11:35.513Z,98696.47
2022-12-09T21:14:03.346Z,98711.91
2022-12-09T21:16:38.718Z,98702.00
2022-12-09T21:19:07.266Z,98689.31
2022-12-09T21:21:36.742Z,98697.84
2022-12-09T21:24:05.871Z,98700.69
2022-12-09T21:26:32.734Z,98685.19
2022-12-09T21:29:03.110Z,98693.00
2022-12-09T21:31:31.963Z,98694.13
2022-12-09T21:34:04.144Z,98697.66
2022-12-09T21:36:43.679Z,98697.69
2022-12-09T21:39:13.983Z,98695.41
2022-12-09T21:41:40.519Z,98705.03
2022-12-09T21:44:07.397Z,98707.75
2022-12-09T21:46:35.136Z,98700.84
2022-12-09T21:49:11.784Z,98705.34
2022-12-09T21:51:38.415Z,98704.75
2022-12-09T21:54:05.047Z,98712.75
2022-12-09T21:56:35.693Z,98703.56
2022-12-09T21:59:03.094Z,98703.66
2022-12-09T22:01:39.289Z,98703.81
2022-12-09T22:04:11.075Z,98698.00
2022-12-09T22:06:37.939Z,98698.00
2022-12-09T22:09:05.542Z,98695.47
2022-12-09T22:11:35.798Z,98683.47
2022-12-09T22:14:23.237Z,98685.03
2022-12-09T22:17:44.029Z,98692.03
2022-12-09T22:24:16.432Z,98694.53
2022-12-09T22:27:36.222Z,98692.09
2022-12-09T22:33:48.006Z,98689.88
2022-12-09T22:36:16.945Z,98679.56
2022-12-09T22:38:46.515Z,98686.00
2022-12-09T22:41:14.061Z,98678.06
2022-12-09T22:43:46.238Z,98674.75
2022-12-09T22:46:19.327Z,98680.94
2022-12-09T22:48:46.158Z,98690.56
2022-12-09T22:51:17.516Z,98680.44
2022-12-09T22:53:47.031Z,98682.22
2022-12-09T22:56:13.741Z,98684.97
2022-12-09T22:58:40.308Z,98684.22
2022-12-09T23:01:11.213Z,98680.59
2022-12-09T23:03:42.812Z,98677.06
2022-12-09T23:06:09.579Z,98685.72
2022-12-09T23:08:36.869Z,98678.13
2022-12-09T23:11:09.959Z,98685.94
2022-12-09T23:13:40.874Z,98686.00
2022-12-09T23:16:12.936Z,98673.19
2022-12-09T23:18:41.948Z,98680.13
2022-12-09T23:21:10.073Z,98668.00
2022-12-09T23:23:36.623Z,98657.69
2022-12-09T23:26:04.999Z,98663.78
2022-12-09T23:28:32.123Z,98662.06
2022-12-09T23:31:01.263Z,97469.19
2022-12-09T23:33:27.848Z,98665.50
2022-12-09T23:35:55.526Z,98668.88
2022-12-09T23:38:24.693Z,98670.66
2022-12-09T23:40:54.307Z,98673.31
2022-12-09T23:43:25.203Z,98683.75
2022-12-09T23:45:54.749Z,98686.41
2022-12-09T23:48:23.433Z,98681.22
2022-12-09T23:50:49.980Z,98684.63
2022-12-09T23:53:19.680Z,98682.09
2022-12-09T23:55:48.915Z,98683.03
2022-12-09T23:58:15.435Z,98682.16
